Aviation Digital Data Service (ADDS)

Output produced by METARs form (0340 UTC 26 June 2019)
found at http://www.aviationweather.gov/metar/data/
 
METAR text: HTKJ 260300Z 00000KT 9999 BKN019 18/18 Q1018 NOSIG
Conditions at: HTKJ (KILIMANJARO AIRP, TZ) observed 0300 UTC 26 June 2019
Temperature: 18.0°C (64°F)
Dewpoint: 18.0°C (64°F) [RH = 100%]
Pressure (altimeter): 30.06 inches Hg (1018.0 mb)
Winds: calm
Visibility: 6 or more miles (10+ km)
Ceiling: 1900 feet AGL
Clouds: broken clouds at 1900 feet AGL
Weather: no significant weather observed at this time

METAR text: HTKJ 260200Z 00000KT 9999 BKN020 18/18 Q1017 NOSIG
Conditions at: HTKJ (KILIMANJARO AIRP, TZ) observed 0200 UTC 26 June 2019
Temperature: 18.0°C (64°F)
Dewpoint: 18.0°C (64°F) [RH = 100%]
Pressure (altimeter): 30.03 inches Hg (1017.0 mb)
Winds: calm
Visibility: 6 or more miles (10+ km)
Ceiling: 2000 feet AGL
Clouds: broken clouds at 2000 feet AGL
Weather: no significant weather observed at this time

METAR text: HTKJ 260100Z 00000KT 9999 BKN021 18/18 Q1017 NOSIG
Conditions at: HTKJ (KILIMANJARO AIRP, TZ) observed 0100 UTC 26 June 2019
Temperature: 18.0°C (64°F)
Dewpoint: 18.0°C (64°F) [RH = 100%]
Pressure (altimeter): 30.03 inches Hg (1017.0 mb)
Winds: calm
Visibility: 6 or more miles (10+ km)
Ceiling: 2100 feet AGL
Clouds: broken clouds at 2100 feet AGL
Weather: no significant weather observed at this time

METAR text: HTKJ 260000Z 00000KT 9999 BKN021 18/18 Q1017 NOSIG
Conditions at: HTKJ (KILIMANJARO AIRP, TZ) observed 0000 UTC 26 June 2019
Temperature: 18.0°C (64°F)
Dewpoint: 18.0°C (64°F) [RH = 100%]
Pressure (altimeter): 30.03 inches Hg (1017.0 mb)
Winds: calm
Visibility: 6 or more miles (10+ km)
Ceiling: 2100 feet AGL
Clouds: broken clouds at 2100 feet AGL
Weather: no significant weather observed at this time

METAR text: HTKJ 252300Z 00000KT 9999 BKN021 18/18 Q1018 NOSIG
Conditions at: HTKJ (KILIMANJARO AIRP, TZ) observed 2300 UTC 25 June 2019
Temperature: 18.0°C (64°F)
Dewpoint: 18.0°C (64°F) [RH = 100%]
Pressure (altimeter): 30.06 inches Hg (1018.0 mb)
Winds: calm
Visibility: 6 or more miles (10+ km)
Ceiling: 2100 feet AGL
Clouds: broken clouds at 2100 feet AGL
Weather: no significant weather observed at this time

METAR text: HTKJ 252200Z 00000KT 9999 BKN021 18/18 Q1018 NOSIG
Conditions at: HTKJ (KILIMANJARO AIRP, TZ) observed 2200 UTC 25 June 2019
Temperature: 18.0°C (64°F)
Dewpoint: 18.0°C (64°F) [RH = 100%]
Pressure (altimeter): 30.06 inches Hg (1018.0 mb)
Winds: calm
Visibility: 6 or more miles (10+ km)
Ceiling: 2100 feet AGL
Clouds: broken clouds at 2100 feet AGL
Weather: no significant weather observed at this time

METAR text: HTKJ 252100Z 00000KT 9999 BKN021 18/18 Q1018 NOSIG
Conditions at: HTKJ (KILIMANJARO AIRP, TZ) observed 2100 UTC 25 June 2019
Temperature: 18.0°C (64°F)
Dewpoint: 18.0°C (64°F) [RH = 100%]
Pressure (altimeter): 30.06 inches Hg (1018.0 mb)
Winds: calm
Visibility: 6 or more miles (10+ km)
Ceiling: 2100 feet AGL
Clouds: broken clouds at 2100 feet AGL
Weather: no significant weather observed at this time

METAR text: HTKJ 252000Z 00000KT 9999 BKN021 19/18 Q1019 NOSIG
Conditions at: HTKJ (KILIMANJARO AIRP, TZ) observed 2000 UTC 25 June 2019
Temperature: 19.0°C (66°F)
Dewpoint: 18.0°C (64°F) [RH = 94%]
Pressure (altimeter): 30.09 inches Hg (1019.0 mb)
Winds: calm
Visibility: 6 or more miles (10+ km)
Ceiling: 2100 feet AGL
Clouds: broken clouds at 2100 feet AGL
Weather: no significant weather observed at this time

METAR text: HTKJ 251900Z 00000KT 9999 BKN023 18/18 Q1019 NOSIG
Conditions at: HTKJ (KILIMANJARO AIRP, TZ) observed 1900 UTC 25 June 2019
Temperature: 18.0°C (64°F)
Dewpoint: 18.0°C (64°F) [RH = 100%]
Pressure (altimeter): 30.09 inches Hg (1019.0 mb)
Winds: calm
Visibility: 6 or more miles (10+ km)
Ceiling: 2300 feet AGL
Clouds: broken clouds at 2300 feet AGL
Weather: no significant weather observed at this time

METAR text: HTKJ 251800Z 00000KT 9999 BKN023 20/18 Q1018 NOSIG
Conditions at: HTKJ (KILIMANJARO AIRP, TZ) observed 1800 UTC 25 June 2019
Temperature: 20.0°C (68°F)
Dewpoint: 18.0°C (64°F) [RH = 88%]
Pressure (altimeter): 30.06 inches Hg (1018.0 mb)
Winds: calm
Visibility: 6 or more miles (10+ km)
Ceiling: 2300 feet AGL
Clouds: broken clouds at 2300 feet AGL
Weather: no significant weather observed at this time

METAR text: HTKJ 251700Z 00000KT 9999 BKN024 20/18 Q1017 NOSIG
Conditions at: HTKJ (KILIMANJARO AIRP, TZ) observed 1700 UTC 25 June 2019
Temperature: 20.0°C (68°F)
Dewpoint: 18.0°C (64°F) [RH = 88%]
Pressure (altimeter): 30.03 inches Hg (1017.0 mb)
Winds: calm
Visibility: 6 or more miles (10+ km)
Ceiling: 2400 feet AGL
Clouds: broken clouds at 2400 feet AGL
Weather: no significant weather observed at this time

METAR text: HTKJ 251600Z 00000KT 9999 BKN024 21/18 Q1017 NOSIG
Conditions at: HTKJ (KILIMANJARO AIRP, TZ) observed 1600 UTC 25 June 2019
Temperature: 21.0°C (70°F)
Dewpoint: 18.0°C (64°F) [RH = 83%]
Pressure (altimeter): 30.03 inches Hg (1017.0 mb)
Winds: calm
Visibility: 6 or more miles (10+ km)
Ceiling: 2400 feet AGL
Clouds: broken clouds at 2400 feet AGL
Weather: no significant weather observed at this time

METAR text: HTKJ 251500Z 06006KT 9999 BKN024 21/18 Q1016 NOSIG
Conditions at: HTKJ (KILIMANJARO AIRP, TZ) observed 1500 UTC 25 June 2019
Temperature: 21.0°C (70°F)
Dewpoint: 18.0°C (64°F) [RH = 83%]
Pressure (altimeter): 30.00 inches Hg (1016.0 mb)
Winds: from the ENE (60 degrees) at 7 MPH (6 knots; 3.1 m/s)
Visibility: 6 or more miles (10+ km)
Ceiling: 2400 feet AGL
Clouds: broken clouds at 2400 feet AGL
Weather: no significant weather observed at this time

METAR text: HTKJ 251400Z 04005KT 9999 BKN024 21/18 Q1016 NOSIG
Conditions at: HTKJ (KILIMANJARO AIRP, TZ) observed 1400 UTC 25 June 2019
Temperature: 21.0°C (70°F)
Dewpoint: 18.0°C (64°F) [RH = 83%]
Pressure (altimeter): 30.00 inches Hg (1016.0 mb)
Winds: from the NE (40 degrees) at 6 MPH (5 knots; 2.6 m/s)
Visibility: 6 or more miles (10+ km)
Ceiling: 2400 feet AGL
Clouds: broken clouds at 2400 feet AGL
Weather: no significant weather observed at this time

METAR text: HTKJ 251300Z 00000KT 9999 BKN024 22/19 Q1016 NOSIG
Conditions at: HTKJ (KILIMANJARO AIRP, TZ) observed 1300 UTC 25 June 2019
Temperature: 22.0°C (72°F)
Dewpoint: 19.0°C (66°F) [RH = 83%]
Pressure (altimeter): 30.00 inches Hg (1016.0 mb)
Winds: calm
Visibility: 6 or more miles (10+ km)
Ceiling: 2400 feet AGL
Clouds: broken clouds at 2400 feet AGL
Weather: no significant weather observed at this time

METAR text: HTKJ 251200Z 34006KT 9999 BKN024 22/19 Q1016 NOSIG
Conditions at: HTKJ (KILIMANJARO AIRP, TZ) observed 1200 UTC 25 June 2019
Temperature: 22.0°C (72°F)
Dewpoint: 19.0°C (66°F) [RH = 83%]
Pressure (altimeter): 30.00 inches Hg (1016.0 mb)
Winds: from the NNW (340 degrees) at 7 MPH (6 knots; 3.1 m/s)
Visibility: 6 or more miles (10+ km)
Ceiling: 2400 feet AGL
Clouds: broken clouds at 2400 feet AGL
Weather: no significant weather observed at this time

METAR text: HTKJ 251100Z 00000KT 9999 BKN024 22/19 Q1017 NOSIG
Conditions at: HTKJ (KILIMANJARO AIRP, TZ) observed 1100 UTC 25 June 2019
Temperature: 22.0°C (72°F)
Dewpoint: 19.0°C (66°F) [RH = 83%]
Pressure (altimeter): 30.03 inches Hg (1017.0 mb)
Winds: calm
Visibility: 6 or more miles (10+ km)
Ceiling: 2400 feet AGL
Clouds: broken clouds at 2400 feet AGL
Weather: no significant weather observed at this time

METAR text: HTKJ 251000Z 00000KT 9999 BKN024 22/19 Q1018 NOSIG
Conditions at: HTKJ (KILIMANJARO AIRP, TZ) observed 1000 UTC 25 June 2019
Temperature: 22.0°C (72°F)
Dewpoint: 19.0°C (66°F) [RH = 83%]
Pressure (altimeter): 30.06 inches Hg (1018.0 mb)
Winds: calm
Visibility: 6 or more miles (10+ km)
Ceiling: 2400 feet AGL
Clouds: broken clouds at 2400 feet AGL
Weather: no significant weather observed at this time

METAR text: HTKJ 250900Z 08006KT 9999 BKN024 22/19 Q1018 NOSIG
Conditions at: HTKJ (KILIMANJARO AIRP, TZ) observed 0900 UTC 25 June 2019
Temperature: 22.0°C (72°F)
Dewpoint: 19.0°C (66°F) [RH = 83%]
Pressure (altimeter): 30.06 inches Hg (1018.0 mb)
Winds: from the E (80 degrees) at 7 MPH (6 knots; 3.1 m/s)
Visibility: 6 or more miles (10+ km)
Ceiling: 2400 feet AGL
Clouds: broken clouds at 2400 feet AGL
Weather: no significant weather observed at this time

METAR text: HTKJ 250800Z 00000KT 9999 -RA BKN024 21/19 Q1019 NOSIG
Conditions at: HTKJ (KILIMANJARO AIRP, TZ) observed 0800 UTC 25 June 2019
Temperature: 21.0°C (70°F)
Dewpoint: 19.0°C (66°F) [RH = 88%]
Pressure (altimeter): 30.09 inches Hg (1019.0 mb)
Winds: calm
Visibility: 6 or more miles (10+ km)
Ceiling: 2400 feet AGL
Clouds: broken clouds at 2400 feet AGL
Weather: -RA  (light rain)

METAR text: HTKJ 250700Z 00000KT 9999 BKN024 21/18 Q1019 NOSIG
Conditions at: HTKJ (KILIMANJARO AIRP, TZ) observed 0700 UTC 25 June 2019
Temperature: 21.0°C (70°F)
Dewpoint: 18.0°C (64°F) [RH = 83%]
Pressure (altimeter): 30.09 inches Hg (1019.0 mb)
Winds: calm
Visibility: 6 or more miles (10+ km)
Ceiling: 2400 feet AGL
Clouds: broken clouds at 2400 feet AGL
Weather: no significant weather observed at this time

METAR text: HTKJ 250500Z 00000KT 9999 BKN018 19/18 Q1018 NOSIG
Conditions at: HTKJ (KILIMANJARO AIRP, TZ) observed 0500 UTC 25 June 2019
Temperature: 19.0°C (66°F)
Dewpoint: 18.0°C (64°F) [RH = 94%]
Pressure (altimeter): 30.06 inches Hg (1018.0 mb)
Winds: calm
Visibility: 6 or more miles (10+ km)
Ceiling: 1800 feet AGL
Clouds: broken clouds at 1800 feet AGL
Weather: no significant weather observed at this time

METAR text: HTKJ 250400Z 00000KT 9999 BKN018 19/18 Q1017 NOSIG
Conditions at: HTKJ (KILIMANJARO AIRP, TZ) observed 0400 UTC 25 June 2019
Temperature: 19.0°C (66°F)
Dewpoint: 18.0°C (64°F) [RH = 94%]
Pressure (altimeter): 30.03 inches Hg (1017.0 mb)
Winds: calm
Visibility: 6 or more miles (10+ km)
Ceiling: 1800 feet AGL
Clouds: broken clouds at 1800 feet AGL
Weather: no significant weather observed at this time

METAR text: HTKJ 250300Z 00000KT 9999 BKN018 19/18 Q1017 NOSIG
Conditions at: HTKJ (KILIMANJARO AIRP, TZ) observed 0300 UTC 25 June 2019
Temperature: 19.0°C (66°F)
Dewpoint: 18.0°C (64°F) [RH = 94%]
Pressure (altimeter): 30.03 inches Hg (1017.0 mb)
Winds: calm
Visibility: 6 or more miles (10+ km)
Ceiling: 1800 feet AGL
Clouds: broken clouds at 1800 feet AGL
Weather: no significant weather observed at this time

METAR text: HTKJ 250200Z 00000KT 9999 BKN018 19/18 Q1016 NOSIG
Conditions at: HTKJ (KILIMANJARO AIRP, TZ) observed 0200 UTC 25 June 2019
Temperature: 19.0°C (66°F)
Dewpoint: 18.0°C (64°F) [RH = 94%]
Pressure (altimeter): 30.00 inches Hg (1016.0 mb)
Winds: calm
Visibility: 6 or more miles (10+ km)
Ceiling: 1800 feet AGL
Clouds: broken clouds at 1800 feet AGL
Weather: no significant weather observed at this time

METAR text: HTKJ 250100Z 00000KT 9999 BKN018 20/18 Q1016 NOSIG
Conditions at: HTKJ (KILIMANJARO AIRP, TZ) observed 0100 UTC 25 June 2019
Temperature: 20.0°C (68°F)
Dewpoint: 18.0°C (64°F) [RH = 88%]
Pressure (altimeter): 30.00 inches Hg (1016.0 mb)
Winds: calm
Visibility: 6 or more miles (10+ km)
Ceiling: 1800 feet AGL
Clouds: broken clouds at 1800 feet AGL
Weather: no significant weather observed at this time

METAR text: HTKJ 250000Z 00000KT 9999 BKN018 20/18 Q1016 NOSIG
Conditions at: HTKJ (KILIMANJARO AIRP, TZ) observed 0000 UTC 25 June 2019
Temperature: 20.0°C (68°F)
Dewpoint: 18.0°C (64°F) [RH = 88%]
Pressure (altimeter): 30.00 inches Hg (1016.0 mb)
Winds: calm
Visibility: 6 or more miles (10+ km)
Ceiling: 1800 feet AGL
Clouds: broken clouds at 1800 feet AGL
Weather: no significant weather observed at this time

METAR text: HTKJ 242300Z 00000KT 9999 BKN018 20/18 NOSIG
Conditions at: HTKJ (KILIMANJARO AIRP, TZ) observed 2300 UTC 24 June 2019
Temperature: 20.0°C (68°F)
Dewpoint: 18.0°C (64°F) [RH = 88%]
Pressure (altimeter): missing
Winds: calm
Visibility: 6 or more miles (10+ km)
Ceiling: 1800 feet AGL
Clouds: broken clouds at 1800 feet AGL
Weather: no significant weather observed at this time

METAR text: HTKJ 242200Z 00000KT 9999 BKN018 19/17 Q1017 NOSIG
Conditions at: HTKJ (KILIMANJARO AIRP, TZ) observed 2200 UTC 24 June 2019
Temperature: 19.0°C (66°F)
Dewpoint: 17.0°C (63°F) [RH = 88%]
Pressure (altimeter): 30.03 inches Hg (1017.0 mb)
Winds: calm
Visibility: 6 or more miles (10+ km)
Ceiling: 1800 feet AGL
Clouds: broken clouds at 1800 feet AGL
Weather: no significant weather observed at this time

METAR text: HTKJ 242100Z 00000KT 9999 BKN018 19/17 Q1017 NOSIG
Conditions at: HTKJ (KILIMANJARO AIRP, TZ) observed 2100 UTC 24 June 2019
Temperature: 19.0°C (66°F)
Dewpoint: 17.0°C (63°F) [RH = 88%]
Pressure (altimeter): 30.03 inches Hg (1017.0 mb)
Winds: calm
Visibility: 6 or more miles (10+ km)
Ceiling: 1800 feet AGL
Clouds: broken clouds at 1800 feet AGL
Weather: no significant weather observed at this time

METAR text: HTKJ 242000Z 03005KT 9999 SCT018 18/17 Q1017 NOSIG
Conditions at: HTKJ (KILIMANJARO AIRP, TZ) observed 2000 UTC 24 June 2019
Temperature: 18.0°C (64°F)
Dewpoint: 17.0°C (63°F) [RH = 94%]
Pressure (altimeter): 30.03 inches Hg (1017.0 mb)
Winds: from the NNE (30 degrees) at 6 MPH (5 knots; 2.6 m/s)
Visibility: 6 or more miles (10+ km)
Ceiling: at least 12,000 feet AGL
Clouds: scattered clouds at 1800 feet AGL
Weather: no significant weather observed at this time

METAR text: HTKJ 241900Z 00000KT 9999 FEW020 18/17 Q1016 NOSIG
Conditions at: HTKJ (KILIMANJARO AIRP, TZ) observed 1900 UTC 24 June 2019
Temperature: 18.0°C (64°F)
Dewpoint: 17.0°C (63°F) [RH = 94%]
Pressure (altimeter): 30.00 inches Hg (1016.0 mb)
Winds: calm
Visibility: 6 or more miles (10+ km)
Ceiling: at least 12,000 feet AGL
Clouds: few clouds at 2000 feet AGL
Weather: no significant weather observed at this time

METAR text: HTKJ 241800Z 33005KT 9999 FEW020 20/17 Q1016 NOSIG
Conditions at: HTKJ (KILIMANJARO AIRP, TZ) observed 1800 UTC 24 June 2019
Temperature: 20.0°C (68°F)
Dewpoint: 17.0°C (63°F) [RH = 83%]
Pressure (altimeter): 30.00 inches Hg (1016.0 mb)
Winds: from the NNW (330 degrees) at 6 MPH (5 knots; 2.6 m/s)
Visibility: 6 or more miles (10+ km)
Ceiling: at least 12,000 feet AGL
Clouds: few clouds at 2000 feet AGL
Weather: no significant weather observed at this time

METAR text: HTKJ 241700Z 35008KT 9999 FEW020 20/17 Q1015 NOSIG
Conditions at: HTKJ (KILIMANJARO AIRP, TZ) observed 1700 UTC 24 June 2019
Temperature: 20.0°C (68°F)
Dewpoint: 17.0°C (63°F) [RH = 83%]
Pressure (altimeter): 29.97 inches Hg (1015.0 mb)
Winds: from the N (350 degrees) at 9 MPH (8 knots; 4.1 m/s)
Visibility: 6 or more miles (10+ km)
Ceiling: at least 12,000 feet AGL
Clouds: few clouds at 2000 feet AGL
Weather: no significant weather observed at this time

METAR text: HTKJ 241600Z 03005KT 9999 FEW024 22/17 Q1015 NOSIG
Conditions at: HTKJ (KILIMANJARO AIRP, TZ) observed 1600 UTC 24 June 2019
Temperature: 22.0°C (72°F)
Dewpoint: 17.0°C (63°F) [RH = 73%]
Pressure (altimeter): 29.97 inches Hg (1015.0 mb)
Winds: from the NNE (30 degrees) at 6 MPH (5 knots; 2.6 m/s)
Visibility: 6 or more miles (10+ km)
Ceiling: at least 12,000 feet AGL
Clouds: few clouds at 2400 feet AGL
Weather: no significant weather observed at this time

Forecast for: HTKJ (KILIMANJARO AIRP, TZ)
Text: HTKJ 252300Z 2600/2624 06005KT 9999 BKN020
Forecast period: 0000 UTC 26 June 2019 to 0000 UTC 27 June 2019
Forecast type: FROM: standard forecast or significant change
Winds: from the ENE (60 degrees) at 6 MPH (5 knots; 2.6 m/s)
Visibility: 6 or more miles 10+ km)
Ceiling: 2000 feet AGL
Clouds: broken clouds at 2000 feet AGL
Weather: no significant weather forecast for this period